createdAt,value
2022-09-23T00:01:19.254Z,101104.34
2022-09-23T00:03:47.407Z,101116.52
2022-09-23T00:06:20.354Z,101120.12
2022-09-23T00:08:49.852Z,101126.50
2022-09-23T00:11:25.501Z,101122.66
2022-09-23T00:13:58.546Z,101108.71
2022-09-23T00:16:28.814Z,101097.55
2022-09-23T00:18:56.170Z,101102.75
2022-09-23T00:21:23.265Z,101103.34
2022-09-23T00:23:50.380Z,101105.02
2022-09-23T00:26:20.679Z,101114.16
2022-09-23T00:28:49.010Z,101106.52
2022-09-23T00:31:21.958Z,101088.93
2022-09-23T00:33:53.898Z,101076.84
2022-09-23T00:36:20.973Z,101065.73
2022-09-23T00:38:48.025Z,101056.95
2022-09-23T00:41:16.405Z,101056.65
2022-09-23T00:43:53.057Z,101043.61
2022-09-23T00:46:43.892Z,101005.50
2022-09-23T00:49:16.569Z,100969.68
2022-09-23T00:51:51.587Z,100955.33
2022-09-23T00:54:20.120Z,100947.31
2022-09-23T00:56:47.111Z,100943.95
2022-09-23T00:59:14.373Z,100958.62
2022-09-23T01:01:42.621Z,100969.82
2022-09-23T01:04:10.042Z,100983.84
2022-09-23T01:06:37.132Z,100976.28
2022-09-23T01:09:04.611Z,100965.95
2022-09-23T01:11:48.655Z,100967.25
2022-09-23T01:14:31.460Z,100980.20
2022-09-23T01:17:07.747Z,100995.57
2022-09-23T01:19:40.867Z,101004.59
2022-09-23T01:22:34.958Z,101000.16
2022-09-23T01:25:28.476Z,100988.92
2022-09-23T01:28:24.133Z,100978.39
2022-09-23T01:31:05.435Z,100969.63
2022-09-23T01:33:58.247Z,100969.00
2022-09-23T01:36:36.162Z,100958.95
2022-09-23T01:39:40.489Z,100952.13
2022-09-23T01:42:42.444Z,100938.02
2022-09-23T01:45:19.635Z,100934.23
2022-09-23T01:48:19.508Z,100931.51
2022-09-23T01:51:08.669Z,100923.63
2022-09-23T01:53:46.787Z,100924.88
2022-09-23T01:56:22.564Z,100941.52
2022-09-23T01:59:12.361Z,100944.95
2022-09-23T02:01:56.916Z,100947.68
2022-09-23T02:04:46.483Z,100951.80
2022-09-23T02:07:26.474Z,100944.86
2022-09-23T02:10:15.084Z,100944.98
2022-09-23T02:12:50.320Z,100943.06
2022-09-23T02:15:28.579Z,100940.77
2022-09-23T02:18:05.287Z,100936.14
2022-09-23T02:20:41.227Z,100925.98
2022-09-23T02:23:26.238Z,100923.09
2022-09-23T02:26:07.878Z,100918.89
2022-09-23T02:29:08.167Z,100926.69
2022-09-23T02:32:02.540Z,100946.27
2022-09-23T02:34:30.517Z,100953.55
2022-09-23T02:37:01.641Z,100954.77
2022-09-23T02:39:43.209Z,100954.90
2022-09-23T02:42:17.092Z,100951.38
2022-09-23T02:44:45.926Z,100954.11
2022-09-23T02:47:14.064Z,100953.31
2022-09-23T02:49:44.643Z,100958.80
2022-09-23T02:52:15.328Z,100961.70
2022-09-23T02:54:43.456Z,100964.73
2022-09-23T02:57:12.460Z,100970.48
2022-09-23T02:59:44.009Z,100972.65
2022-09-23T03:02:27.723Z,100978.54
2022-09-23T03:05:28.218Z,100981.90
2022-09-23T03:11:04.861Z,100979.77
2022-09-23T03:14:07.840Z,100976.42
2022-09-23T03:17:04.382Z,100970.17
2022-09-23T03:20:06.766Z,100966.86
2022-09-23T03:22:39.922Z,100965.64
2022-09-23T03:25:12.792Z,100963.02
2022-09-23T03:27:43.301Z,100965.53
2022-09-23T03:30:13.869Z,100972.19
2022-09-23T03:32:47.690Z,100968.33
2022-09-23T03:35:15.695Z,100968.86
2022-09-23T03:38:14.916Z,100970.27
2022-09-23T03:40:50.944Z,100969.42
2022-09-23T03:43:20.006Z,100969.39
2022-09-23T03:45:49.517Z,100967.19
2022-09-23T03:48:18.244Z,100966.86
2022-09-23T03:50:49.485Z,100964.48
2022-09-23T03:53:25.785Z,100960.52
2022-09-23T03:55:54.561Z,100963.34
2022-09-23T03:58:25.717Z,100955.83
2022-09-23T04:00:55.533Z,100948.73
2022-09-23T04:03:23.906Z,100948.36
2022-09-23T04:05:53.046Z,100949.98
2022-09-23T04:08:21.711Z,100943.94
2022-09-23T04:10:54.659Z,100938.66
2022-09-23T04:13:22.657Z,100938.13
2022-09-23T04:15:51.578Z,100934.45
2022-09-23T04:18:20.946Z,100933.67
2022-09-23T04:21:00.910Z,100932.95
2022-09-23T04:23:30.176Z,100940.09
2022-09-23T04:25:58.307Z,100935.44
2022-09-23T04:28:26.901Z,100931.36
2022-09-23T04:30:58.936Z,100930.95
2022-09-23T04:33:28.117Z,100927.49
2022-09-23T04:35:58.153Z,100924.45
2022-09-23T04:38:27.735Z,100928.46
2022-09-23T04:40:58.519Z,100934.27
2022-09-23T04:43:26.812Z,100936.02
2022-09-23T04:46:03.726Z,100941.04
2022-09-23T04:48:36.195Z,100942.64
2022-09-23T04:51:16.471Z,100941.67
2022-09-23T04:53:49.781Z,100949.28
2022-09-23T04:56:21.559Z,100952.71
2022-09-23T04:58:53.014Z,100958.76
2022-09-23T05:01:29.752Z,100959.14
2022-09-23T05:04:03.452Z,100962.81
2022-09-23T05:06:33.147Z,100968.59
2022-09-23T05:09:05.454Z,100967.84
2022-09-23T05:11:35.691Z,100973.19
2022-09-23T05:14:04.065Z,100979.55
2022-09-23T05:16:35.898Z,100983.04
2022-09-23T05:19:11.501Z,100983.98
2022-09-23T05:21:41.361Z,100993.86
2022-09-23T05:24:09.662Z,100989.80
2022-09-23T05:26:39.059Z,100993.32
2022-09-23T05:29:10.783Z,100999.88
2022-09-23T05:31:38.299Z,101008.18
2022-09-23T05:34:06.920Z,101015.86
2022-09-23T05:36:42.031Z,101021.27
2022-09-23T05:39:11.509Z,101028.77
2022-09-23T05:41:44.159Z,101037.26
2022-09-23T05:44:14.127Z,101040.69
2022-09-23T05:46:43.988Z,101047.59
2022-09-23T05:49:13.191Z,101045.80
2022-09-23T05:51:43.174Z,101054.27
2022-09-23T05:54:25.268Z,101055.52
2022-09-23T05:56:55.023Z,101064.25
2022-09-23T05:59:22.291Z,101068.27
2022-09-23T06:01:56.178Z,101075.29
2022-09-23T06:04:29.623Z,101081.00
2022-09-23T06:06:59.259Z,101079.88
2022-09-23T06:09:36.201Z,101089.81
2022-09-23T06:12:12.647Z,101093.46
2022-09-23T06:14:40.422Z,101100.16
2022-09-23T06:17:08.036Z,101108.23
2022-09-23T06:19:34.957Z,101106.81
2022-09-23T06:22:01.976Z,101111.24
2022-09-23T06:24:31.570Z,101113.66
2022-09-23T06:26:58.867Z,101120.17
2022-09-23T06:29:25.829Z,101114.14
2022-09-23T06:31:52.849Z,101119.23
2022-09-23T06:34:20.171Z,101116.36
2022-09-23T06:36:47.988Z,101116.64
2022-09-23T06:39:15.659Z,101124.30
2022-09-23T06:41:43.991Z,101131.27
2022-09-23T06:44:14.786Z,101127.06
2022-09-23T06:46:42.126Z,101127.85
2022-09-23T06:49:09.634Z,101130.95
2022-09-23T06:51:36.876Z,101132.83
2022-09-23T06:54:03.978Z,101136.04
2022-09-23T06:56:36.155Z,101134.77
2022-09-23T06:59:06.087Z,101135.80
2022-09-23T07:01:34.562Z,101139.66
2022-09-23T07:04:02.027Z,101136.15
2022-09-23T07:06:28.956Z,101139.03
2022-09-23T07:08:55.933Z,101140.16
2022-09-23T07:11:23.576Z,101140.27
2022-09-23T07:13:50.691Z,101147.61
2022-09-23T07:16:18.367Z,101138.11
2022-09-23T07:18:49.905Z,101144.21
2022-09-23T07:21:18.962Z,101141.81
2022-09-23T07:23:50.571Z,101143.92
2022-09-23T07:26:20.704Z,101151.66
2022-09-23T07:28:49.795Z,101152.08
2022-09-23T07:31:32.482Z,101148.77
2022-09-23T07:34:05.156Z,101148.02
2022-09-23T07:36:37.554Z,101153.41
2022-09-23T07:39:11.942Z,101161.59
2022-09-23T07:41:39.667Z,101169.02
2022-09-23T07:44:12.499Z,101173.09
2022-09-23T07:46:43.626Z,101172.96
2022-09-23T07:49:12.309Z,101176.54
2022-09-23T07:51:41.233Z,101179.63
2022-09-23T07:54:12.078Z,101175.91
2022-09-23T07:56:40.017Z,101182.05
2022-09-23T07:59:11.257Z,101191.30
2022-09-23T08:01:44.656Z,101196.20
2022-09-23T08:04:15.270Z,101194.02
2022-09-23T08:06:51.727Z,101198.66
2022-09-23T08:09:21.833Z,101201.70
2022-09-23T08:11:49.867Z,101208.65
2022-09-23T08:14:18.564Z,101210.27
2022-09-23T08:16:47.887Z,101212.08
2022-09-23T08:19:16.688Z,101215.63
2022-09-23T08:21:47.368Z,101215.09
2022-09-23T08:24:20.142Z,101216.22
2022-09-23T08:26:48.782Z,101214.89
2022-09-23T08:29:18.004Z,101216.12
2022-09-23T08:31:46.820Z,101222.41
2022-09-23T08:34:14.739Z,101225.20
2022-09-23T08:36:42.243Z,101220.50
2022-09-23T08:39:19.333Z,101213.75
2022-09-23T08:42:24.585Z,101219.95
2022-09-23T08:44:57.162Z,101222.39
2022-09-23T08:47:48.311Z,101227.30
2022-09-23T08:50:21.994Z,101219.23
2022-09-23T08:53:00.331Z,101225.08
2022-09-23T08:55:36.076Z,101223.93
2022-09-23T08:58:24.371Z,101228.52
2022-09-23T09:01:27.844Z,101230.73
2022-09-23T09:03:58.204Z,101239.29
2022-09-23T09:06:45.630Z,101238.30
2022-09-23T09:09:31.314Z,101243.40
2022-09-23T09:12:22.444Z,101247.88
2022-09-23T09:15:14.023Z,101254.98
2022-09-23T09:18:13.125Z,101253.06
2022-09-23T09:20:49.163Z,101255.10
2022-09-23T09:23:35.536Z,101253.23
2022-09-23T09:26:11.499Z,101254.48
2022-09-23T09:28:45.817Z,101258.24
2022-09-23T09:31:21.615Z,101262.08
2022-09-23T09:34:08.911Z,101266.49
2022-09-23T09:37:08.870Z,101269.89
2022-09-23T09:39:37.037Z,101267.27
2022-09-23T09:42:08.803Z,101268.88
2022-09-23T09:45:35.431Z,101269.91
2022-09-23T09:48:24.914Z,101273.91
2022-09-23T09:50:57.621Z,101277.64
2022-09-23T09:53:46.584Z,101278.44
2022-09-23T09:56:19.298Z,101286.42
2022-09-23T09:59:12.898Z,101284.77
2022-09-23T10:01:45.319Z,101288.09
2022-09-23T10:04:37.287Z,101291.66
2022-09-23T10:07:18.181Z,101296.15
2022-09-23T10:10:22.174Z,101296.95
2022-09-23T10:12:58.423Z,101294.13
2022-09-23T10:15:45.470Z,101292.90
2022-09-23T10:18:44.171Z,101297.45
2022-09-23T10:21:15.946Z,101306.70
2022-09-23T10:23:58.764Z,101303.52
2022-09-23T10:26:33.505Z,101306.37
2022-09-23T10:29:22.580Z,101311.61
2022-09-23T10:32:18.067Z,101305.97
2022-09-23T10:35:15.296Z,101308.60
2022-09-23T10:37:55.119Z,101309.77
2022-09-23T10:41:02.396Z,101313.23
2022-09-23T10:47:30.721Z,101315.61
2022-09-23T10:50:27.545Z,101314.01
2022-09-23T10:53:18.793Z,101314.80
2022-09-23T10:56:06.176Z,101315.81
2022-09-23T10:58:37.216Z,101315.92
2022-09-23T11:01:40.182Z,101320.81
2022-09-23T11:04:47.324Z,101321.09
2022-09-23T11:07:26.037Z,101327.12
2022-09-23T11:10:45.482Z,101325.36
2022-09-23T11:13:54.727Z,101327.52
2022-09-23T11:16:45.092Z,101327.08
2022-09-23T11:19:16.547Z,101324.21
2022-09-23T11:21:46.629Z,101323.96
2022-09-23T11:24:25.215Z,101323.79
2022-09-23T11:27:36.848Z,101320.58
2022-09-23T11:30:18.272Z,101321.38
2022-09-23T11:33:19.172Z,101319.31
2022-09-23T11:38:47.477Z,101314.14
2022-09-23T11:41:28.279Z,101313.77
2022-09-23T11:44:24.680Z,101315.75
2022-09-23T11:47:26.882Z,101313.84
2022-09-23T11:50:03.446Z,101314.75
2022-09-23T11:53:03.195Z,101316.34
2022-09-23T11:55:50.962Z,101315.56
2022-09-23T11:58:33.303Z,101314.45
2022-09-23T12:01:34.188Z,101314.42
2022-09-23T12:04:20.897Z,101313.25
2022-09-23T12:07:22.588Z,101316.67
2022-09-23T12:10:13.803Z,101318.83
2022-09-23T12:13:08.246Z,101317.88
2022-09-23T12:15:54.028Z,101322.22
2022-09-23T12:18:38.633Z,101326.64
2022-09-23T12:21:27.390Z,101331.23
2022-09-23T12:24:27.677Z,101332.98
2022-09-23T12:27:01.725Z,101332.20
2022-09-23T12:29:34.976Z,101333.02
2022-09-23T12:32:10.207Z,101328.20
2022-09-23T12:34:47.432Z,101331.40
2022-09-23T12:37:32.757Z,101331.41
2022-09-23T12:40:09.665Z,101330.48
2022-09-23T12:42:46.608Z,101327.65
2022-09-23T12:45:24.729Z,101331.41
2022-09-23T12:47:52.150Z,101328.33
2022-09-23T12:50:53.250Z,101326.46
2022-09-23T12:53:37.538Z,101328.53
2022-09-23T12:56:21.597Z,101327.73
2022-09-23T12:58:53.401Z,101324.58
2022-09-23T13:01:31.023Z,101326.42
2022-09-23T13:04:19.006Z,101331.77
2022-09-23T13:07:07.061Z,101327.39
2022-09-23T13:09:50.206Z,101328.42
2022-09-23T13:12:35.551Z,101330.98
2022-09-23T13:15:06.605Z,101330.73
2022-09-23T13:17:39.041Z,101328.21
2022-09-23T13:20:24.101Z,101327.23
2022-09-23T13:22:56.494Z,101331.61
2022-09-23T13:25:30.637Z,101330.66
2022-09-23T13:28:04.605Z,101332.90
2022-09-23T13:30:34.893Z,101329.16
2022-09-23T13:33:52.647Z,101333.66
2022-09-23T13:36:22.763Z,101335.33
2022-09-23T13:39:21.733Z,101335.04
2022-09-23T13:41:58.828Z,101335.04
2022-09-23T13:47:52.270Z,101334.34
2022-09-23T13:50:32.766Z,101333.00
2022-09-23T13:53:06.651Z,101335.98
2022-09-23T13:55:39.084Z,101336.69
2022-09-23T14:01:45.043Z,101332.90
2022-09-23T14:04:26.814Z,101332.90
2022-09-23T14:06:58.535Z,101328.63
2022-09-23T14:09:28.895Z,101328.79
2022-09-23T14:12:05.307Z,101329.64
2022-09-23T14:14:46.088Z,101330.55
2022-09-23T14:17:18.846Z,101327.24
2022-09-23T14:19:47.503Z,101325.20
2022-09-23T14:22:31.709Z,101325.92
2022-09-23T14:25:06.476Z,101330.29
2022-09-23T14:27:37.434Z,101332.05
2022-09-23T14:30:31.569Z,101339.07
2022-09-23T14:33:08.707Z,101336.62
2022-09-23T14:35:49.759Z,101336.23
2022-09-23T14:38:49.833Z,101342.55
2022-09-23T14:41:35.722Z,101342.67
2022-09-23T14:44:03.753Z,101339.98
2022-09-23T14:46:40.396Z,101340.31
2022-09-23T14:49:17.711Z,101338.06
2022-09-23T14:52:01.792Z,101336.11
2022-09-23T14:55:00.667Z,101334.50
2022-09-23T14:57:34.764Z,101333.02
2022-09-23T15:00:09.952Z,101332.33
2022-09-23T15:02:43.261Z,101332.77
2022-09-23T15:05:25.718Z,101333.30
2022-09-23T15:07:58.297Z,101333.56
2022-09-23T15:10:33.484Z,101336.34
2022-09-23T15:13:16.533Z,101336.98
2022-09-23T15:15:44.875Z,101337.41
2022-09-23T15:18:28.827Z,101342.83
2022-09-23T15:21:19.582Z,101344.66
2022-09-23T15:23:48.402Z,101343.70
2022-09-23T15:26:24.149Z,101345.42
2022-09-23T15:28:56.669Z,101345.20
2022-09-23T15:31:27.409Z,101346.77
2022-09-23T15:34:01.356Z,101349.91
2022-09-23T15:36:29.451Z,101349.69
2022-09-23T15:39:02.574Z,101350.57
2022-09-23T15:41:30.225Z,101354.63
2022-09-23T15:43:58.432Z,101355.50
2022-09-23T15:46:32.169Z,101354.37
2022-09-23T15:49:07.207Z,101352.98
2022-09-23T15:51:40.726Z,101353.11
2022-09-23T15:54:15.650Z,101350.16
2022-09-23T15:56:43.323Z,101353.09
2022-09-23T15:59:11.797Z,101354.30
2022-09-23T16:01:40.760Z,101356.05
2022-09-23T16:04:13.218Z,101361.34
2022-09-23T16:06:43.440Z,101359.39
2022-09-23T16:09:13.642Z,101363.56
2022-09-23T16:11:51.964Z,101361.05
2022-09-23T16:14:21.172Z,101361.97
2022-09-23T16:16:48.268Z,101360.16
2022-09-23T16:19:18.900Z,101357.80
2022-09-23T16:21:52.450Z,101357.53
2022-09-23T16:24:34.948Z,101357.64
2022-09-23T16:27:09.498Z,101356.14
2022-09-23T16:29:41.193Z,101357.98
2022-09-23T16:32:16.873Z,101360.53
2022-09-23T16:34:46.996Z,101363.63
2022-09-23T16:37:19.694Z,101362.40
2022-09-23T16:39:52.598Z,101366.20
2022-09-23T16:42:25.648Z,101371.39
2022-09-23T16:44:56.596Z,101374.43
2022-09-23T16:47:25.508Z,101378.40
2022-09-23T16:49:57.926Z,101381.95
2022-09-23T16:52:39.022Z,101381.13
2022-09-23T16:55:12.404Z,101386.29
2022-09-23T16:57:42.626Z,101387.19
2022-09-23T17:00:37.143Z,101387.73
2022-09-23T17:03:26.076Z,101391.80
2022-09-23T17:05:55.063Z,101393.78
2022-09-23T17:08:22.408Z,101395.49
2022-09-23T17:10:59.600Z,101395.40
2022-09-23T17:13:30.239Z,101398.02
2022-09-23T17:16:02.778Z,101399.59
2022-09-23T17:18:30.181Z,101400.23
2022-09-23T17:21:03.314Z,101398.53
2022-09-23T17:23:31.907Z,101403.02
2022-09-23T17:26:06.728Z,101402.60
2022-09-23T17:28:40.167Z,101406.35
2022-09-23T17:31:15.182Z,101405.55
2022-09-23T17:33:44.323Z,101412.23
2022-09-23T17:36:14.377Z,101416.42
2022-09-23T17:38:46.622Z,101416.48
2022-09-23T17:41:16.232Z,101421.34
2022-09-23T17:43:52.343Z,101421.89
2022-09-23T17:46:19.637Z,101426.17
2022-09-23T17:48:47.381Z,101426.70
2022-09-23T17:51:20.022Z,101434.10
2022-09-23T17:53:52.410Z,101435.16
2022-09-23T17:56:31.298Z,101437.46
2022-09-23T17:59:06.696Z,101436.55
2022-09-23T18:01:42.111Z,101438.09
2022-09-23T18:04:12.981Z,101440.66
2022-09-23T18:06:52.509Z,101443.61
2022-09-23T18:09:20.394Z,101446.50
2022-09-23T18:11:50.537Z,101444.98
2022-09-23T18:14:24.342Z,101450.27
2022-09-23T18:16:56.440Z,101448.95
2022-09-23T18:19:26.934Z,101456.74
2022-09-23T18:21:59.151Z,101454.18
2022-09-23T18:24:34.359Z,101457.70
2022-09-23T18:27:03.015Z,101463.43
2022-09-23T18:29:30.936Z,101468.31
2022-09-23T18:32:00.023Z,101472.46
2022-09-23T18:34:28.991Z,101475.45
2022-09-23T18:36:58.348Z,101479.77
2022-09-23T18:39:32.780Z,101483.46
2022-09-23T18:42:15.832Z,101492.66
2022-09-23T18:44:45.958Z,101493.30
2022-09-23T18:47:39.835Z,101500.89
2022-09-23T18:50:27.301Z,101504.95
2022-09-23T18:53:03.183Z,101509.17
2022-09-23T18:55:35.321Z,101509.49
2022-09-23T18:58:09.335Z,101510.72
2022-09-23T19:00:37.151Z,101511.97
2022-09-23T19:03:05.468Z,101514.11
2022-09-23T19:05:37.074Z,101515.20
2022-09-23T19:08:09.316Z,101517.27
2022-09-23T19:10:40.466Z,101520.00
2022-09-23T19:13:15.902Z,101518.40
2022-09-23T19:15:46.637Z,101515.09
2022-09-23T19:18:18.136Z,101520.16
2022-09-23T19:20:56.917Z,101524.81
2022-09-23T19:23:27.429Z,101523.95
2022-09-23T19:26:06.122Z,101521.82
2022-09-23T19:28:38.573Z,101525.56
2022-09-23T19:31:21.303Z,101529.56
2022-09-23T19:33:57.294Z,101536.52
2022-09-23T19:36:26.435Z,101537.80
2022-09-23T19:39:05.356Z,101539.77
2022-09-23T19:41:35.668Z,101538.34
2022-09-23T19:44:03.929Z,101539.09
2022-09-23T19:46:34.655Z,101539.96
2022-09-23T19:49:05.905Z,101546.48
2022-09-23T19:51:44.126Z,101545.31
2022-09-23T19:54:15.884Z,101545.10
2022-09-23T19:56:49.540Z,101549.81
2022-09-23T19:59:20.106Z,101554.99
2022-09-23T20:01:48.561Z,101560.08
2022-09-23T20:04:25.507Z,101563.41
2022-09-23T20:07:06.340Z,101565.13
2022-09-23T20:09:35.579Z,101566.61
2022-09-23T20:12:07.156Z,101576.90
2022-09-23T20:14:37.146Z,101579.27
2022-09-23T20:17:10.061Z,101583.13
2022-09-23T20:19:38.083Z,101587.03
2022-09-23T20:25:13.062Z,101586.87
2022-09-23T20:27:42.636Z,101591.48
2022-09-23T20:30:15.518Z,101596.42
2022-09-23T20:32:46.070Z,101595.79
2022-09-23T20:35:19.543Z,101594.41
2022-09-23T20:37:50.226Z,101596.76
2022-09-23T20:40:27.964Z,101600.94
2022-09-23T20:43:00.730Z,101603.29
2022-09-23T20:45:28.691Z,101604.68
2022-09-23T20:48:03.214Z,101605.60
2022-09-23T20:50:37.090Z,101607.09
2022-09-23T20:53:10.019Z,101609.19
2022-09-23T20:55:39.372Z,101609.88
2022-09-23T20:58:13.251Z,101609.67
2022-09-23T21:00:51.051Z,101615.12
2022-09-23T21:03:19.954Z,101615.02
2022-09-23T21:05:48.165Z,101617.42
2022-09-23T21:08:22.900Z,101619.98
2022-09-23T21:11:15.665Z,101616.75
2022-09-23T21:13:49.427Z,101615.52
2022-09-23T21:16:21.057Z,101618.02
2022-09-23T21:18:53.908Z,101620.11
2022-09-23T21:21:23.046Z,101617.80
2022-09-23T21:23:50.965Z,101619.79
2022-09-23T21:26:27.282Z,101624.63
2022-09-23T21:28:59.997Z,101624.69
2022-09-23T21:31:40.928Z,101625.45
2022-09-23T21:34:11.330Z,101622.94
2022-09-23T21:36:45.172Z,101623.51
2022-09-23T21:39:18.461Z,101625.91
2022-09-23T21:41:52.680Z,101625.96
2022-09-23T21:44:22.886Z,101624.79
2022-09-23T21:46:52.282Z,101625.73
2022-09-23T21:49:21.126Z,101626.71
2022-09-23T21:51:49.206Z,101625.58
2022-09-23T21:54:18.067Z,101623.02
2022-09-23T21:56:48.833Z,101621.64
2022-09-23T21:59:21.195Z,101619.23
2022-09-23T22:01:54.380Z,101623.52
2022-09-23T22:04:23.641Z,101620.11
2022-09-23T22:06:50.936Z,101625.19
2022-09-23T22:09:20.869Z,101624.66
2022-09-23T22:12:14.165Z,101620.77
2022-09-23T22:14:43.233Z,101621.75
2022-09-23T22:17:15.790Z,101615.06
2022-09-23T22:19:49.541Z,101613.61
2022-09-23T22:22:25.221Z,101611.65
2022-09-23T22:24:56.809Z,101611.36
2022-09-23T22:27:27.733Z,101610.79
2022-09-23T22:30:13.780Z,101606.73
2022-09-23T22:32:43.890Z,101607.63
2022-09-23T22:35:18.078Z,101606.89
2022-09-23T22:37:56.264Z,101611.22
2022-09-23T22:40:30.261Z,101610.64
2022-09-23T22:42:57.823Z,101608.19
2022-09-23T22:45:26.636Z,101607.25
2022-09-23T22:47:53.629Z,101606.70
2022-09-23T22:50:20.672Z,101606.55
2022-09-23T22:52:52.762Z,101607.77
2022-09-23T22:55:23.232Z,101609.20
2022-09-23T22:57:51.905Z,101609.27
2022-09-23T23:00:19.960Z,101607.70
2022-09-23T23:02:47.756Z,101609.33
2022-09-23T23:05:15.138Z,101614.24
2022-09-23T23:07:42.051Z,101613.23
2022-09-23T23:10:12.698Z,101613.77
2022-09-23T23:12:40.763Z,101616.22
2022-09-23T23:15:15.905Z,101615.96
2022-09-23T23:17:44.672Z,101617.73
2022-09-23T23:20:25.105Z,101615.59
2022-09-23T23:22:52.085Z,101616.88
2022-09-23T23:25:19.136Z,101618.11
2022-09-23T23:27:46.185Z,101619.66
2022-09-23T23:30:14.051Z,101623.99
2022-09-23T23:32:45.497Z,101623.98
2022-09-23T23:35:12.369Z,101623.03
2022-09-23T23:37:39.850Z,101625.71
2022-09-23T23:40:20.754Z,101624.90
2022-09-23T23:42:48.022Z,101625.93
2022-09-23T23:45:17.503Z,101626.30
2022-09-23T23:47:47.209Z,101623.32
2022-09-23T23:50:25.329Z,101623.05
2022-09-23T23:52:53.145Z,101622.95
2022-09-23T23:55:26.323Z,101624.42
2022-09-23T23:58:02.493Z,101625.16
